Time;durP1;ratioP1;P1;durP2;ratioP2;P2;SDS_P1;SDS_P2;PMS_P1;PMS_P2;Temp;Humidity;BMP_temperature;BMP_pressure;BME280_temperature;BME280_humidity;BME280_pressure;Samples;Min_cycle;Max_cycle;Signal;HPM_P1;HPM_P2
2024/02/27 00:01:52;;;;;;;17.60;6.70;;;;;;;-145.63;100.00;61273.97;5003728;28;20104;-64
2024/02/27 00:04:18;;;;;;;14.05;6.93;;;;;;;-145.63;100.00;61273.97;4998781;28;20126;-65
2024/02/27 00:06:43;;;;;;;15.25;7.63;;;;;;;-145.63;100.00;61273.97;5015645;28;20037;-64
2024/02/27 00:09:14;;;;;;;15.55;7.30;;;;;;;-145.63;100.00;61273.97;4998025;28;20034;-65
2024/02/27 00:11:43;;;;;;;15.00;6.82;;;;;;;-145.63;100.00;61273.97;5009192;28;20057;-64
2024/02/27 00:14:09;;;;;;;13.90;7.85;;;;;;;-145.63;100.00;61273.97;5007536;28;20065;-65
2024/02/27 00:16:35;;;;;;;16.30;7.00;;;;;;;-145.63;100.00;61273.97;5004925;28;20029;-65
2024/02/27 00:19:00;;;;;;;19.05;7.53;;;;;;;-145.63;100.00;61273.97;5015150;28;20037;-65
2024/02/27 00:21:26;;;;;;;14.27;7.35;;;;;;;-145.63;100.00;61273.97;4995209;28;20420;-65
2024/02/27 00:23:52;;;;;;;12.95;6.90;;;;;;;-145.63;100.00;61273.97;5011166;28;20057;-65
2024/02/27 00:26:17;;;;;;;13.93;7.10;;;;;;;-145.63;100.00;61273.97;5005514;28;20026;-64
2024/02/27 00:28:43;;;;;;;12.30;7.07;;;;;;;-145.63;100.00;61273.97;5001021;28;20022;-64
2024/02/27 00:31:09;;;;;;;14.30;7.15;;;;;;;-145.63;100.00;61273.97;5015190;28;20041;-64
2024/02/27 00:33:35;;;;;;;13.18;6.60;;;;;;;-145.63;100.00;61273.97;5014826;28;20056;-65
2024/02/27 00:36:03;;;;;;;13.68;6.88;;;;;;;-145.63;100.00;61273.97;5014588;28;20045;-64
2024/02/27 00:38:29;;;;;;;15.35;7.43;;;;;;;-145.63;100.00;61273.97;5011468;28;20046;-64
2024/02/27 00:40:55;;;;;;;23.33;6.95;;;;;;;-145.63;100.00;61273.97;5002299;28;20026;-65
2024/02/27 00:43:21;;;;;;;19.38;7.88;;;;;;;-145.63;100.00;61273.97;5012817;28;20058;-64
2024/02/27 00:45:46;;;;;;;16.70;7.78;;;;;;;-145.63;100.00;61273.97;4998011;28;20112;-64
2024/02/27 00:48:12;;;;;;;11.93;6.88;;;;;;;-145.63;100.00;61273.97;5015332;28;20034;-65
2024/02/27 00:50:39;;;;;;;12.68;6.53;;;;;;;-145.63;100.00;61273.97;5001487;28;20038;-64
2024/02/27 00:53:07;;;;;;;11.50;6.82;;;;;;;-145.63;100.00;61273.97;5003813;28;20036;-64
2024/02/27 00:55:33;;;;;;;12.75;6.53;;;;;;;-145.63;100.00;61273.97;5014933;28;20026;-64
2024/02/27 00:57:59;;;;;;;17.25;8.23;;;;;;;-145.63;100.00;61273.97;5015024;28;20033;-64
2024/02/27 01:00:25;;;;;;;13.68;7.50;;;;;;;-145.63;100.00;61273.97;5014159;28;20044;-64
2024/02/27 01:02:50;;;;;;;12.98;7.70;;;;;;;-145.63;100.00;61273.97;5007490;28;20368;-63
2024/02/27 01:05:16;;;;;;;11.68;6.88;;;;;;;-145.63;100.00;61273.97;5004938;28;20096;-65
2024/02/27 01:07:42;;;;;;;12.52;7.22;;;;;;;-145.63;100.00;61273.97;5010057;28;20030;-65
2024/02/27 01:10:08;;;;;;;13.32;7.15;;;;;;;-145.63;100.00;61273.97;4996009;28;20029;-67
2024/02/27 01:12:34;;;;;;;13.70;6.85;;;;;;;-145.63;100.00;61273.97;5014746;28;20483;-65
2024/02/27 01:14:59;;;;;;;16.75;7.65;;;;;;;-145.63;100.00;61273.97;4999050;28;20037;-65
2024/02/27 01:17:25;;;;;;;18.38;7.90;;;;;;;-145.63;100.00;61273.97;5008757;28;20104;-65
2024/02/27 01:19:51;;;;;;;12.45;7.40;;;;;;;-145.63;100.00;61273.97;5001253;28;20029;-65
2024/02/27 01:22:31;;;;;;;13.63;7.63;;;;;;;-145.63;100.00;61273.97;5014838;28;20033;-65
2024/02/27 01:24:59;;;;;;;13.70;7.35;;;;;;;-145.63;100.00;61273.97;5014546;28;20029;-64
2024/02/27 01:27:25;;;;;;;12.85;6.95;;;;;;;-145.63;100.00;61273.97;4995947;28;20032;-65
2024/02/27 01:29:52;;;;;;;13.48;7.28;;;;;;;-145.63;100.00;61273.97;5008279;28;20038;-65
2024/02/27 01:32:18;;;;;;;16.60;6.88;;;;;;;-145.63;100.00;61273.97;5004592;28;20046;-66
2024/02/27 01:34:43;;;;;;;17.63;7.20;;;;;;;-145.63;100.00;61273.97;5011751;28;20091;-65
2024/02/27 01:37:09;;;;;;;12.18;7.13;;;;;;;-145.63;100.00;61273.97;5014270;28;20034;-65
2024/02/27 01:39:35;;;;;;;11.52;6.53;;;;;;;-145.63;100.00;61273.97;5014587;28;20371;-64
2024/02/27 01:42:00;;;;;;;14.65;7.45;;;;;;;-145.63;100.00;61273.97;4998738;28;20038;-65
2024/02/27 01:44:27;;;;;;;14.60;7.70;;;;;;;-145.63;100.00;61273.97;5005919;28;20034;-65
2024/02/27 01:46:53;;;;;;;11.60;6.63;;;;;;;-145.63;100.00;61273.97;5007985;28;20038;-65
2024/02/27 01:49:19;;;;;;;12.75;7.00;;;;;;;-145.63;100.00;61273.97;4996239;28;20030;-65
2024/02/27 01:51:47;;;;;;;14.50;7.72;;;;;;;-145.63;100.00;61273.97;5014159;28;20025;-65
2024/02/27 01:54:17;;;;;;;14.75;7.03;;;;;;;-145.63;100.00;61273.97;5014259;28;20033;-66
2024/02/27 01:56:47;;;;;;;12.95;7.20;;;;;;;-145.63;100.00;61273.97;5014107;28;20030;-65
2024/02/27 01:59:13;;;;;;;17.77;7.80;;;;;;;-145.63;100.00;61273.97;5014104;28;20030;-66
2024/02/27 02:01:39;;;;;;;13.82;7.38;;;;;;;-145.63;100.00;61273.97;5009689;28;20053;-66
2024/02/27 02:04:08;;;;;;;13.10;7.05;;;;;;;-145.63;100.00;61273.97;4994719;28;20042;-65
2024/02/27 02:06:36;;;;;;;13.45;7.65;;;;;;;-145.63;100.00;61273.97;5013772;28;20494;-65
2024/02/27 02:09:01;;;;;;;11.48;7.28;;;;;;;-145.63;100.00;61273.97;5014013;28;20056;-64
2024/02/27 02:11:27;;;;;;;13.38;7.07;;;;;;;-145.63;100.00;61273.97;5003418;28;20468;-66
2024/02/27 02:13:54;;;;;;;19.98;7.63;;;;;;;-145.63;100.00;61273.97;4999931;28;20384;-65
2024/02/27 02:16:20;;;;;;;14.35;7.28;;;;;;;-145.63;100.00;61273.97;5012401;28;20025;-65
2024/02/27 02:18:47;;;;;;;12.07;6.80;;;;;;;-145.63;100.00;61273.97;5009221;28;20034;-65
2024/02/27 02:21:13;;;;;;;11.98;7.05;;;;;;;-145.63;100.00;61273.97;5002253;28;20423;-65
2024/02/27 02:23:40;;;;;;;12.25;7.18;;;;;;;-145.63;100.00;61273.97;5013401;28;20056;-65
2024/02/27 02:26:06;;;;;;;12.88;6.97;;;;;;;-145.63;100.00;61273.97;5006559;28;20031;-65
2024/02/27 02:28:32;;;;;;;12.35;7.75;;;;;;;-145.63;100.00;61273.97;4997293;28;20030;-65
2024/02/27 02:30:57;;;;;;;12.55;7.25;;;;;;;-145.63;100.00;61273.97;5013163;28;20053;-66
2024/02/27 02:33:23;;;;;;;11.52;6.93;;;;;;;-145.63;100.00;61273.97;4995217;28;20072;-65
2024/02/27 02:35:49;;;;;;;14.05;7.95;;;;;;;-145.63;100.00;61273.97;5008248;28;20092;-65
2024/02/27 02:38:15;;;;;;;13.40;7.25;;;;;;;-145.63;100.00;61273.97;5013659;28;20034;-66
2024/02/27 02:40:40;;;;;;;14.10;7.75;;;;;;;-145.63;100.00;61273.97;5008453;28;20045;-64
2024/02/27 02:43:06;;;;;;;13.68;7.13;;;;;;;-145.63;100.00;61273.97;4998123;28;20088;-66
2024/02/27 02:45:32;;;;;;;13.27;7.65;;;;;;;-145.63;100.00;61273.97;5017070;28;20091;-66
2024/02/27 02:47:57;;;;;;;13.88;8.35;;;;;;;-145.63;100.00;61273.97;5002923;28;20049;-65
2024/02/27 02:50:23;;;;;;;11.32;6.75;;;;;;;-145.63;100.00;61273.97;5007694;28;20029;-66
2024/02/27 02:52:49;;;;;;;17.13;7.70;;;;;;;-145.63;100.00;61273.97;5016977;28;20368;-65
2024/02/27 02:55:15;;;;;;;11.18;7.43;;;;;;;-145.63;100.00;61273.97;5017932;28;20029;-67
2024/02/27 02:57:41;;;;;;;13.32;7.18;;;;;;;-145.63;100.00;61273.97;5017395;28;20471;-65
2024/02/27 03:00:08;;;;;;;15.75;7.15;;;;;;;-145.63;100.00;61273.97;5017439;28;20104;-67
2024/02/27 03:02:34;;;;;;;14.90;7.93;;;;;;;-145.63;100.00;61273.97;5005772;28;20030;-66
2024/02/27 03:04:59;;;;;;;12.40;7.20;;;;;;;-145.63;100.00;61273.97;5004012;28;20099;-65
2024/02/27 03:07:25;;;;;;;13.50;7.63;;;;;;;-145.63;100.00;61273.97;5019287;28;20045;-65
2024/02/27 03:09:51;;;;;;;12.18;6.88;;;;;;;-145.63;100.00;61273.97;4999280;28;20537;-65
2024/02/27 03:12:17;;;;;;;12.88;6.93;;;;;;;-145.63;100.00;61273.97;5014141;28;20558;-65
2024/02/27 03:14:47;;;;;;;14.13;6.97;;;;;;;-145.63;100.00;61273.97;5002895;28;20384;-65
2024/02/27 03:17:16;;;;;;;12.75;6.95;;;;;;;-145.63;100.00;61273.97;5004673;28;20464;-63
2024/02/27 03:19:43;;;;;;;14.85;7.32;;;;;;;-145.63;100.00;61273.97;5016482;28;20491;-66
2024/02/27 03:22:10;;;;;;;12.77;6.97;;;;;;;-145.63;100.00;61273.97;5015532;28;20391;-65
2024/02/27 03:24:39;;;;;;;14.77;7.88;;;;;;;-145.63;100.00;61273.97;5016895;28;20061;-66
2024/02/27 03:27:05;;;;;;;13.00;7.32;;;;;;;-145.63;100.00;61273.97;5014105;28;20034;-64
2024/02/27 03:29:31;;;;;;;11.93;7.32;;;;;;;-145.63;100.00;61273.97;5017197;28;20095;-65
2024/02/27 03:31:57;;;;;;;12.52;7.20;;;;;;;-145.63;100.00;61273.97;5010589;28;20069;-65
2024/02/27 03:34:26;;;;;;;11.68;7.25;;;;;;;-145.63;100.00;61273.97;4998569;28;20122;-64
2024/02/27 03:36:53;;;;;;;13.45;8.18;;;;;;;-145.63;100.00;61273.97;5016590;28;20088;-64
2024/02/27 03:39:19;;;;;;;12.20;6.70;;;;;;;-145.63;100.00;61273.97;4999672;28;20082;-64
2024/02/27 03:41:45;;;;;;;13.57;7.07;;;;;;;-145.63;100.00;61273.97;5008745;28;20034;-64
2024/02/27 03:44:11;;;;;;;11.32;6.53;;;;;;;-145.63;100.00;61273.97;5009404;28;20030;-64
2024/02/27 03:46:36;;;;;;;15.27;7.55;;;;;;;-145.63;100.00;61273.97;5005590;28;20029;-65
2024/02/27 03:49:02;;;;;;;13.85;7.47;;;;;;;-145.63;100.00;61273.97;5016567;28;20025;-66
2024/02/27 03:51:28;;;;;;;14.52;7.75;;;;;;;-145.63;100.00;61273.97;4998380;28;20030;-66
2024/02/27 03:53:53;;;;;;;15.75;7.60;;;;;;;-145.63;100.00;61273.97;5009151;28;20080;-65
2024/02/27 03:56:19;;;;;;;14.98;7.18;;;;;;;-145.63;100.00;61273.97;5016268;28;20037;-65
2024/02/27 03:58:46;;;;;;;16.00;8.10;;;;;;;-145.63;100.00;61273.97;5015935;28;20435;-64
2024/02/27 04:01:16;;;;;;;12.50;7.53;;;;;;;-145.63;100.00;61273.97;5016333;28;20054;-65
2024/02/27 04:03:42;;;;;;;17.73;8.90;;;;;;;-145.63;100.00;61273.97;4996732;28;20377;-64
2024/02/27 04:06:07;;;;;;;13.00;7.85;;;;;;;-145.63;100.00;61273.97;5029719;28;20037;-63
2024/02/27 04:08:33;;;;;;;12.45;7.53;;;;;;;-145.63;100.00;61273.97;5021754;28;20034;-65
2024/02/27 04:10:59;;;;;;;13.40;7.43;;;;;;;-145.63;100.00;61273.97;5010197;28;20483;-64
2024/02/27 04:13:25;;;;;;;12.68;7.50;;;;;;;-145.63;100.00;61273.97;4997854;28;20534;-65
2024/02/27 04:15:50;;;;;;;16.25;8.18;;;;;;;-145.63;100.00;61273.97;5015695;28;20030;-65
2024/02/27 04:18:16;;;;;;;14.38;7.65;;;;;;;-145.63;100.00;61273.97;5015902;28;20048;-66
2024/02/27 04:20:43;;;;;;;12.55;7.80;;;;;;;-145.63;100.00;61273.97;5004852;28;20062;-65
2024/02/27 04:23:09;;;;;;;13.40;6.90;;;;;;;-145.63;100.00;61273.97;5003757;28;20040;-65
2024/02/27 04:25:36;;;;;;;11.00;7.03;;;;;;;-145.63;100.00;61273.97;5013916;28;20055;-65
2024/02/27 04:28:02;;;;;;;13.13;7.95;;;;;;;-145.63;100.00;61273.97;4996518;28;20471;-64
2024/02/27 04:30:27;;;;;;;14.90;8.35;;;;;;;-145.63;100.00;61273.97;5013547;28;20030;-66
2024/02/27 04:32:53;;;;;;;11.32;7.35;;;;;;;-145.63;100.00;61273.97;5015569;28;20549;-64
2024/02/27 04:35:19;;;;;;;12.80;7.35;;;;;;;-145.63;100.00;61273.97;5007545;28;20076;-64
2024/02/27 04:37:44;;;;;;;18.92;8.40;;;;;;;-145.63;100.00;61273.97;4999972;28;20088;-65
2024/02/27 04:40:10;;;;;;;11.85;7.38;;;;;;;-145.63;100.00;61273.97;5015569;28;20076;-65
2024/02/27 04:42:36;;;;;;;13.75;7.18;;;;;;;-145.63;100.00;61273.97;4996649;28;20117;-65
2024/02/27 04:45:02;;;;;;;11.20;7.38;;;;;;;-145.63;100.00;61273.97;5009761;28;20122;-66
2024/02/27 04:47:28;;;;;;;12.73;7.50;;;;;;;-145.63;100.00;61273.97;5014988;28;20529;-64
2024/02/27 04:49:54;;;;;;;13.20;7.05;;;;;;;-145.63;100.00;61273.97;5010359;28;20101;-63
2024/02/27 04:52:19;;;;;;;13.07;7.82;;;;;;;-145.63;100.00;61273.97;4995310;28;20038;-66
2024/02/27 04:54:45;;;;;;;16.00;8.82;;;;;;;-145.63;100.00;61273.97;5007269;28;20080;-64
2024/02/27 04:57:10;;;;;;;12.60;7.63;;;;;;;-145.63;100.00;61273.97;5010736;28;20125;-68
2024/02/27 04:59:36;;;;;;;13.80;8.68;;;;;;;-145.63;100.00;61273.97;5014909;28;20056;-66
2024/02/27 05:02:03;;;;;;;15.15;7.07;;;;;;;-145.63;100.00;61273.97;5019370;28;20034;-65
2024/02/27 05:04:29;;;;;;;13.02;7.28;;;;;;;-145.63;100.00;61273.97;5033094;28;20025;-66
2024/02/27 05:06:55;;;;;;;10.80;7.18;;;;;;;-145.63;100.00;61273.97;5014881;28;20659;-66
2024/02/27 05:09:21;;;;;;;10.25;6.65;;;;;;;-145.63;100.00;61273.97;4998341;28;20551;-67
2024/02/27 05:11:47;;;;;;;17.98;7.78;;;;;;;-145.63;100.00;61273.97;5007914;28;20022;-65
2024/02/27 05:14:13;;;;;;;14.88;7.47;;;;;;;-145.63;100.00;61273.97;5019197;28;20032;-65
2024/02/27 05:16:39;;;;;;;12.57;7.32;;;;;;;-145.63;100.00;61273.97;5011141;28;20452;-66
2024/02/27 05:19:04;;;;;;;12.93;7.55;;;;;;;-145.63;100.00;61273.97;4996699;28;20038;-64
2024/02/27 05:21:30;;;;;;;13.00;7.72;;;;;;;-145.63;100.00;61273.97;5012081;28;20076;-63
2024/02/27 05:23:55;;;;;;;14.63;8.13;;;;;;;-145.63;100.00;61273.97;5001924;28;20036;-62
2024/02/27 05:26:21;;;;;;;16.30;7.53;;;;;;;-145.63;100.00;61273.97;5007700;28;20595;-66
2024/02/27 05:28:47;;;;;;;15.95;7.78;;;;;;;-145.63;100.00;61273.97;5013494;28;20038;-64
2024/02/27 05:31:24;;;;;;;13.13;7.40;;;;;;;-145.63;100.00;61273.97;5014638;28;20018;-65
2024/02/27 05:33:50;;;;;;;14.02;8.43;;;;;;;-145.63;100.00;61273.97;4995084;28;20584;-65
2024/02/27 05:36:16;;;;;;;16.20;7.90;;;;;;;-145.63;100.00;61273.97;5010427;28;20045;-65
2024/02/27 05:38:42;;;;;;;14.93;8.43;;;;;;;-145.63;100.00;61273.97;5013633;28;20408;-65
2024/02/27 05:41:08;;;;;;;13.30;7.85;;;;;;;-145.63;100.00;61273.97;5014545;28;20034;-64
2024/02/27 05:43:34;;;;;;;12.88;7.35;;;;;;;-145.63;100.00;61273.97;5012822;28;20068;-66
2024/02/27 05:45:59;;;;;;;15.05;7.53;;;;;;;-145.63;100.00;61273.97;5003617;28;20033;-67
2024/02/27 05:48:25;;;;;;;16.15;7.35;;;;;;;-145.63;100.00;61273.97;5014082;28;20038;-65
2024/02/27 05:50:51;;;;;;;15.25;7.70;;;;;;;-145.63;100.00;61273.97;5013845;28;20052;-65
2024/02/27 05:53:17;;;;;;;15.55;8.07;;;;;;;-145.63;100.00;61273.97;5006715;28;20084;-65
2024/02/27 05:55:43;;;;;;;17.08;7.65;;;;;;;-145.63;100.00;61273.97;4994502;28;20026;-64
2024/02/27 05:58:08;;;;;;;14.07;7.93;;;;;;;-145.63;100.00;61273.97;4994596;28;20030;-64
2024/02/27 06:00:34;;;;;;;12.27;7.80;;;;;;;-145.63;100.00;61273.97;5011877;28;20034;-65
2024/02/27 06:02:59;;;;;;;13.27;7.68;;;;;;;-145.63;100.00;61273.97;5012769;28;20387;-67
2024/02/27 06:05:25;;;;;;;18.17;7.53;;;;;;;-145.63;100.00;61273.97;5001481;28;20030;-65
2024/02/27 06:07:51;;;;;;;12.07;7.43;;;;;;;-145.63;100.00;61273.97;5010305;28;20038;-66
2024/02/27 06:10:17;;;;;;;17.95;8.60;;;;;;;-145.63;100.00;61273.97;5002606;28;20026;-64
2024/02/27 06:12:44;;;;;;;15.35;7.68;;;;;;;-145.63;100.00;61273.97;5013398;28;20040;-64
2024/02/27 06:15:10;;;;;;;15.05;7.80;;;;;;;-145.63;100.00;61273.97;4999496;28;20364;-64
2024/02/27 06:17:35;;;;;;;17.05;7.53;;;;;;;-145.63;100.00;61273.97;5010188;28;20474;-65
2024/02/27 06:20:04;;;;;;;18.98;8.35;;;;;;;-145.63;100.00;61273.97;5008867;28;20030;-63
2024/02/27 06:22:31;;;;;;;16.67;7.38;;;;;;;-145.63;100.00;61273.97;4994540;28;20080;-64
2024/02/27 06:24:57;;;;;;;13.80;7.95;;;;;;;-145.63;100.00;61273.97;5013033;28;20628;-65
2024/02/27 06:27:22;;;;;;;13.93;7.35;;;;;;;-145.63;100.00;61273.97;4997964;28;20034;-65
2024/02/27 06:29:49;;;;;;;17.63;8.18;;;;;;;-145.63;100.00;61273.97;5004055;28;20034;-65
2024/02/27 06:32:15;;;;;;;12.63;7.75;;;;;;;-145.63;100.00;61273.97;5011798;28;20056;-64
2024/02/27 06:34:40;;;;;;;15.40;9.00;;;;;;;-145.63;100.00;61273.97;5009972;28;20027;-65
2024/02/27 06:37:06;;;;;;;13.85;7.78;;;;;;;-145.63;100.00;61273.97;5011545;28;20030;-63
2024/02/27 06:39:32;;;;;;;13.88;7.22;;;;;;;-145.63;100.00;61273.97;5009393;28;20084;-66
2024/02/27 06:41:58;;;;;;;14.20;7.90;;;;;;;-145.63;100.00;61273.97;5011021;28;20033;-68
2024/02/27 06:44:23;;;;;;;14.02;7.90;;;;;;;-145.63;100.00;61273.97;5012170;28;20474;-66
2024/02/27 06:46:49;;;;;;;17.70;7.82;;;;;;;-145.63;100.00;61273.97;5013022;28;20385;-66
2024/02/27 06:49:15;;;;;;;13.50;7.10;;;;;;;-145.63;100.00;61273.97;5012916;28;20129;-66
2024/02/27 06:51:41;;;;;;;12.65;8.43;;;;;;;-145.63;100.00;61273.97;5012671;28;20101;-65
2024/02/27 06:54:07;;;;;;;17.35;7.93;;;;;;;-145.63;100.00;61273.97;5012775;28;20117;-64
2024/02/27 06:56:32;;;;;;;13.40;8.60;;;;;;;-145.63;100.00;61273.97;5012700;28;20391;-65
2024/02/27 06:58:58;;;;;;;14.90;8.10;;;;;;;-145.63;100.00;61273.97;5009726;28;20042;-64
2024/02/27 07:01:24;;;;;;;15.07;8.07;;;;;;;-145.63;100.00;61273.97;5011995;28;20547;-65
2024/02/27 07:03:50;;;;;;;15.68;8.50;;;;;;;-145.63;100.00;61273.97;4998180;28;20460;-65
2024/02/27 07:06:16;;;;;;;15.45;7.88;;;;;;;-145.63;100.00;61273.97;5008074;28;20112;-66
2024/02/27 07:08:42;;;;;;;15.80;8.15;;;;;;;-145.63;100.00;61273.97;5002385;28;20058;-64
2024/02/27 07:11:08;;;;;;;16.30;8.23;;;;;;;-145.63;100.00;61273.97;5011680;28;20455;-66
2024/02/27 07:13:34;;;;;;;14.20;8.70;;;;;;;-145.63;100.00;61273.97;5012056;28;20200;-64
2024/02/27 07:16:01;;;;;;;14.43;8.98;;;;;;;-145.63;100.00;61273.97;4993526;28;20060;-64
2024/02/27 07:18:27;;;;;;;14.23;8.73;;;;;;;-145.63;100.00;61273.97;5009404;28;20030;-65
2024/02/27 07:20:55;;;;;;;13.90;8.25;;;;;;;-145.63;100.00;61273.97;5013049;28;20113;-63
2024/02/27 07:23:21;;;;;;;17.73;8.82;;;;;;;-145.63;100.00;61273.97;5013226;28;20030;-66
2024/02/27 07:25:46;;;;;;;11.50;7.93;;;;;;;-145.63;100.00;61273.97;5011119;28;20080;-65
2024/02/27 07:28:12;;;;;;;15.23;9.57;;;;;;;-145.63;100.00;61273.97;5012906;28;20430;-65
2024/02/27 07:30:38;;;;;;;16.88;8.95;;;;;;;-145.63;100.00;61273.97;5034077;28;20053;-65
2024/02/27 07:33:04;;;;;;;20.40;8.75;;;;;;;-145.63;100.00;61273.97;5023631;28;20484;-64
2024/02/27 07:35:30;;;;;;;14.90;9.15;;;;;;;-145.63;100.00;61273.97;5016439;28;20114;-65
2024/02/27 07:37:55;;;;;;;14.82;8.23;;;;;;;-145.63;100.00;61273.97;5015873;28;20053;-64
2024/02/27 07:40:21;;;;;;;14.02;8.93;;;;;;;-145.63;100.00;61273.97;5002301;28;20465;-65
2024/02/27 07:42:47;;;;;;;14.07;8.57;;;;;;;-145.63;100.00;61273.97;5014548;28;20030;-64
2024/02/27 07:45:12;;;;;;;13.35;8.15;;;;;;;-145.63;100.00;61273.97;5002719;28;20038;-65
2024/02/27 07:47:40;;;;;;;17.40;8.77;;;;;;;-145.63;100.00;61273.97;5005782;28;20026;-64
2024/02/27 07:50:07;;;;;;;14.98;9.18;;;;;;;-145.63;100.00;61273.97;5015883;28;20447;-65
2024/02/27 07:52:33;;;;;;;14.82;8.73;;;;;;;-145.63;100.00;61273.97;5015731;28;20476;-64
2024/02/27 07:54:59;;;;;;;14.60;8.43;;;;;;;-145.63;100.00;61273.97;4996259;28;20056;-65
2024/02/27 07:57:24;;;;;;;15.32;8.68;;;;;;;-145.63;100.00;61273.97;5012941;28;20061;-65
2024/02/27 07:59:51;;;;;;;16.27;8.80;;;;;;;-145.63;100.00;61273.97;5016169;28;20034;-64
2024/02/27 08:02:17;;;;;;;18.20;8.63;;;;;;;-145.63;100.00;61273.97;5010170;28;20038;-64
2024/02/27 08:04:43;;;;;;;18.38;9.23;;;;;;;-145.63;100.00;61273.97;4997869;28;20037;-65
2024/02/27 08:07:09;;;;;;;12.35;8.35;;;;;;;-145.63;100.00;61273.97;5016390;28;20034;-64
2024/02/27 08:09:34;;;;;;;15.88;8.65;;;;;;;-145.63;100.00;61273.97;5008895;28;20062;-64
2024/02/27 08:12:00;;;;;;;14.52;8.65;;;;;;;-145.63;100.00;61273.97;5004756;28;20030;-65
2024/02/27 08:14:29;;;;;;;13.07;8.93;;;;;;;-145.63;100.00;61273.97;5003404;28;20044;-64
2024/02/27 08:16:54;;;;;;;15.20;8.35;;;;;;;-145.63;100.00;61273.97;5015932;28;20395;-64
2024/02/27 08:19:20;;;;;;;18.08;8.98;;;;;;;-145.63;100.00;61273.97;4996311;28;20490;-65
2024/02/27 08:21:46;;;;;;;15.07;8.73;;;;;;;-145.63;100.00;61273.97;5013967;28;20041;-64
2024/02/27 08:24:12;;;;;;;12.30;8.63;;;;;;;-145.63;100.00;61273.97;5005033;28;20487;-64
2024/02/27 08:26:39;;;;;;;19.92;8.43;;;;;;;-145.63;100.00;61273.97;5010636;28;20109;-64
2024/02/27 08:29:05;;;;;;;12.23;8.43;;;;;;;-145.63;100.00;61273.97;5011660;28;20121;-63
2024/02/27 08:31:31;;;;;;;15.43;9.05;;;;;;;-145.63;100.00;61273.97;5005257;28;20090;-64
2024/02/27 08:33:57;;;;;;;17.80;8.93;;;;;;;-145.63;100.00;61273.97;5026839;28;20034;-64
2024/02/27 08:36:25;;;;;;;18.38;8.55;;;;;;;-145.63;100.00;61273.97;5002575;28;20349;-64
2024/02/27 08:38:50;;;;;;;17.95;8.52;;;;;;;-145.63;100.00;61273.97;5009298;28;20041;-65
2024/02/27 08:41:20;;;;;;;12.93;8.20;;;;;;;-145.63;100.00;61273.97;5007235;28;20030;-65
2024/02/27 08:43:46;;;;;;;13.98;8.48;;;;;;;-145.63;100.00;61273.97;5008047;28;20029;-64
2024/02/27 08:46:18;;;;;;;15.57;8.63;;;;;;;-145.63;100.00;61273.97;5014482;28;20423;-66
2024/02/27 08:48:44;;;;;;;;;;;;;;;-145.63;100.00;61273.97;5011905;28;20030;-64
2024/02/27 08:51:10;;;;;;;18.05;8.70;;;;;;;-145.63;100.00;61273.97;5010255;28;19914;-64
2024/02/27 08:53:36;;;;;;;18.42;8.82;;;;;;;-145.63;100.00;61273.97;5014918;28;20423;-66
2024/02/27 08:56:03;;;;;;;17.98;9.50;;;;;;;-145.63;100.00;61273.97;5014632;28;20033;-65
2024/02/27 08:58:29;;;;;;;14.35;8.70;;;;;;;-145.63;100.00;61273.97;5014612;28;20029;-65
2024/02/27 09:00:56;;;;;;;13.43;8.52;;;;;;;-145.63;100.00;61273.97;5014309;28;20805;-66
2024/02/27 09:03:22;;;;;;;16.52;9.18;;;;;;;-145.63;100.00;61273.97;5000411;28;20106;-66
2024/02/27 09:05:47;;;;;;;16.20;8.63;;;;;;;-145.63;100.00;61273.97;5015410;28;20117;-65
2024/02/27 09:08:14;;;;;;;16.00;9.20;;;;;;;-145.63;100.00;61273.97;5010642;28;20490;-64
2024/02/27 09:10:43;;;;;;;21.10;9.60;;;;;;;-145.63;100.00;61273.97;5013668;28;20157;-64
2024/02/27 09:13:08;;;;;;;17.65;9.15;;;;;;;-145.63;100.00;61273.97;5013990;28;20057;-64
2024/02/27 09:15:34;;;;;;;16.08;9.48;;;;;;;-145.63;100.00;61273.97;5014443;28;20083;-65
2024/02/27 09:18:00;;;;;;;16.15;9.70;;;;;;;-145.63;100.00;61273.97;5013803;28;20444;-63
2024/02/27 09:20:26;;;;;;;17.63;9.80;;;;;;;-145.63;100.00;61273.97;5006426;28;20496;-64
2024/02/27 09:22:51;;;;;;;16.33;9.82;;;;;;;-145.63;100.00;61273.97;4996097;28;20034;-64
2024/02/27 09:25:17;;;;;;;15.25;9.80;;;;;;;-145.63;100.00;61273.97;5013560;28;20529;-64
2024/02/27 09:27:43;;;;;;;17.45;9.90;;;;;;;-145.63;100.00;61273.97;5013257;28;20493;-61
2024/02/27 09:30:09;;;;;;;16.70;10.70;;;;;;;-145.63;100.00;61273.97;5013732;28;20033;-63
2024/02/27 09:32:34;;;;;;;16.67;9.65;;;;;;;-145.63;100.00;61273.97;5013548;28;20100;-62
2024/02/27 09:35:00;;;;;;;18.35;9.52;;;;;;;-145.63;100.00;61273.97;5005259;28;20029;-64
2024/02/27 09:37:26;;;;;;;14.95;9.35;;;;;;;-145.63;100.00;61273.97;5010875;28;20130;-63
2024/02/27 09:39:53;;;;;;;21.30;9.18;;;;;;;-145.63;100.00;61273.97;5008403;28;20033;-66
2024/02/27 09:42:20;;;;;;;14.05;8.75;;;;;;;-145.63;100.00;61273.97;5013585;28;20030;-65
2024/02/27 09:44:46;;;;;;;18.35;9.95;;;;;;;-145.63;100.00;61273.97;4999780;28;20058;-66
2024/02/27 09:47:14;;;;;;;19.33;9.40;;;;;;;-145.63;100.00;61273.97;5011559;28;20043;-65
2024/02/27 09:49:41;;;;;;;16.02;8.90;;;;;;;-145.63;100.00;61273.97;5013207;28;20394;-66
2024/02/27 09:52:11;;;;;;;18.27;9.50;;;;;;;-145.63;100.00;61273.97;5010868;28;20081;-65
2024/02/27 09:54:38;;;;;;;18.77;9.18;;;;;;;-145.63;100.00;61273.97;5010940;28;20041;-65
2024/02/27 09:57:04;;;;;;;15.70;9.15;;;;;;;-145.63;100.00;61273.97;5012232;28;20022;-68
2024/02/27 09:59:31;;;;;;;16.42;9.80;;;;;;;-145.63;100.00;61273.97;5012902;28;20025;-65
2024/02/27 10:02:18;;;;;;;14.65;9.43;;;;;;;-145.63;100.00;61273.97;5013285;28;20049;-65
2024/02/27 10:04:44;;;;;;;25.35;9.27;;;;;;;-145.63;100.00;61273.97;5007549;28;20045;-65
2024/02/27 10:07:10;;;;;;;16.50;9.25;;;;;;;-145.63;100.00;61273.97;5011143;28;20030;-66
2024/02/27 10:09:40;;;;;;;16.15;9.63;;;;;;;-145.63;100.00;61273.97;5007363;28;20048;-67
2024/02/27 10:12:08;;;;;;;18.35;9.18;;;;;;;-145.63;100.00;61273.97;5011657;28;20360;-65
2024/02/27 10:14:38;;;;;;;19.27;9.15;;;;;;;-145.63;100.00;61273.97;5015087;28;20549;-67
2024/02/27 10:17:05;;;;;;;19.15;9.27;;;;;;;-145.63;100.00;61273.97;5014972;28;20037;-67
2024/02/27 10:19:32;;;;;;;15.18;9.40;;;;;;;-145.63;100.00;61273.97;5013647;28;20026;-65
2024/02/27 10:21:59;;;;;;;17.90;10.27;;;;;;;-145.63;100.00;61273.97;5011869;28;20022;-66
2024/02/27 10:24:25;;;;;;;18.20;10.00;;;;;;;-145.63;100.00;61273.97;5013369;28;20093;-66
2024/02/27 10:27:01;;;;;;;17.70;10.10;;;;;;;-145.63;100.00;61273.97;5012060;28;20018;-65
2024/02/27 10:29:28;;;;;;;20.67;9.88;;;;;;;-145.63;100.00;61273.97;5012408;28;20088;-68
2024/02/27 10:31:54;;;;;;;17.45;9.48;;;;;;;-145.63;100.00;61273.97;5012214;28;20058;-66
2024/02/27 10:34:27;;;;;;;18.25;9.25;;;;;;;-145.63;100.00;61273.97;5010468;28;20038;-67
2024/02/27 10:37:04;;;;;;;22.63;9.75;;;;;;;-145.63;100.00;61273.97;5013705;28;20087;-66
2024/02/27 10:39:33;;;;;;;15.82;8.68;;;;;;;-145.63;100.00;61273.97;4998632;28;20062;-66
2024/02/27 10:41:59;;;;;;;24.58;10.32;;;;;;;-145.63;100.00;61273.97;4997183;28;20038;-64
2024/02/27 10:44:29;;;;;;;20.77;9.07;;;;;;;-145.63;100.00;61273.97;5012290;28;20041;-66
2024/02/27 10:46:55;;;;;;;15.48;8.00;;;;;;;-145.63;100.00;61273.97;5011678;28;20060;-69
2024/02/27 10:49:22;;;;;;;19.38;9.13;;;;;;;-145.63;100.00;61273.97;5024651;28;20026;-66
2024/02/27 10:51:48;;;;;;;17.38;8.77;;;;;;;-145.63;100.00;61273.97;5012542;28;20026;-66
2024/02/27 10:54:17;;;;;;;23.38;9.13;;;;;;;-145.63;100.00;61273.97;5005299;28;20537;-68
2024/02/27 10:56:44;;;;;;;17.27;9.10;;;;;;;-145.63;100.00;61273.97;5004098;28;20033;-69
2024/02/27 10:59:10;;;;;;;18.83;8.55;;;;;;;-145.63;100.00;61273.97;4982947;28;20034;-66